Time;durP1;ratioP1;P1;durP2;ratioP2;P2;SDS_P1;SDS_P2;PMS_P1;PMS_P2;Temp;Humidity;BMP_temperature;BMP_pressure;BME280_temperature;BME280_humidity;BME280_pressure;Samples;Min_cycle;Max_cycle;Signal;HPM_P1;HPM_P2
2022/08/09 00:01:47;;;;;;;6.87;6.30;;;;;;;28.04;36.99;95214.72;6177389;28;102996;-52
2022/08/09 00:04:58;;;;;;;6.57;6.07;;;;;;;28.13;37.04;95213.81;6176561;28;103443;-50
2022/08/09 00:08:21;;;;;;;7.30;6.67;;;;;;;28.20;36.46;95216.69;6182496;28;103093;-52
2022/08/09 00:11:34;;;;;;;6.50;6.00;;;;;;;28.27;36.29;95225.00;6179523;28;103999;-50
2022/08/09 00:14:57;;;;;;;6.73;6.03;;;;;;;28.30;36.91;95227.00;6174129;28;104030;-50
2022/08/09 00:18:08;;;;;;;6.40;5.90;;;;;;;28.32;36.03;95230.91;6184415;28;103408;-52
2022/08/09 00:21:15;;;;;;;6.40;5.90;;;;;;;28.33;36.06;95231.69;6184317;28;103170;-52
2022/08/09 00:24:18;;;;;;;6.07;5.57;;;;;;;28.08;36.80;95230.19;6169385;28;102953;-52
2022/08/09 00:27:22;;;;;;;5.67;5.23;;;;;;;27.88;36.53;95232.69;6177497;28;103150;-53
2022/08/09 00:30:29;;;;;;;6.90;6.40;;;;;;;27.63;37.32;95221.13;6183424;28;104102;-52
2022/08/09 00:33:34;;;;;;;6.20;5.70;;;;;;;27.56;37.09;95236.28;6182947;28;104647;-52
2022/08/09 00:36:54;;;;;;;6.70;6.07;;;;;;;27.41;37.68;95240.41;6162515;28;104666;-52
2022/08/09 00:39:58;;;;;;;6.80;6.30;;;;;;;27.37;38.22;95234.13;6183744;28;104120;-51
2022/08/09 00:43:15;;;;;;;6.30;5.90;;;;;;;27.07;37.72;95242.34;6178194;28;104036;-51
2022/08/09 00:46:38;;;;;;;7.77;6.10;;;;;;;26.68;38.82;95238.31;6183914;28;103094;-51
2022/08/09 00:49:58;;;;;;;6.83;6.33;;;;;;;26.79;38.55;95233.31;6179268;28;103978;-51
2022/08/09 00:53:05;;;;;;;6.67;6.17;;;;;;;26.60;39.33;95255.25;6185730;28;103376;-52
2022/08/09 00:56:13;;;;;;;6.40;5.87;;;;;;;26.53;39.13;95250.41;6187933;28;103002;-52
2022/08/09 00:59:16;;;;;;;6.03;5.63;;;;;;;26.68;38.41;95262.47;6179878;28;104058;-52
2022/08/09 01:02:47;;;;;;;5.73;5.33;;;;;;;26.92;37.96;95266.38;6186489;28;103076;-51
2022/08/09 01:05:57;;;;;;;5.80;5.40;;;;;;;26.92;38.12;95261.00;6185160;28;103621;-51
2022/08/09 01:09:17;;;;;;;7.10;6.40;;;;;;;27.27;37.58;95256.84;6177540;28;104188;-52
2022/08/09 01:12:29;;;;;;;7.13;6.43;;;;;;;27.31;38.07;95263.13;6176538;28;103315;-53
2022/08/09 01:15:38;;;;;;;6.90;6.20;;;;;;;27.43;37.82;95265.84;6187896;28;102969;-52
2022/08/09 01:18:58;;;;;;;6.73;6.13;;;;;;;27.40;37.35;95257.66;6186907;28;102994;-52
2022/08/09 01:22:22;;;;;;;6.70;6.00;;;;;;;27.31;37.70;95252.38;6177058;28;103192;-53
2022/08/09 01:25:43;;;;;;;6.10;5.70;;;;;;;27.26;37.54;95252.59;6187161;28;104198;-51
2022/08/09 01:28:56;;;;;;;6.73;6.13;;;;;;;27.08;38.31;95243.13;6174156;28;104068;-53
2022/08/09 01:32:02;;;;;;;5.47;5.07;;;;;;;26.90;39.08;95221.03;6187144;28;103964;-52
2022/08/09 01:35:29;;;;;;;6.00;5.60;;;;;;;26.87;38.87;95219.78;6181327;28;103080;-52
2022/08/09 01:38:43;;;;;;;6.50;5.63;;;;;;;26.84;38.19;95201.66;6185059;28;104339;-52
2022/08/09 01:41:49;;;;;;;6.20;5.60;;;;;;;26.91;38.32;95198.44;6179934;28;103251;-52
2022/08/09 01:45:06;;;;;;;5.67;5.27;;;;;;;26.87;39.05;95206.34;6176488;28;103907;-53
2022/08/09 01:48:11;;;;;;;5.50;5.10;;;;;;;26.80;38.72;95200.75;6186865;28;102960;-52
2022/08/09 01:51:19;;;;;;;6.43;5.80;;;;;;;26.91;39.01;95201.13;6186579;28;103263;-51
2022/08/09 01:54:30;;;;;;;5.93;5.40;;;;;;;27.14;38.23;95198.81;6187979;28;103092;-54
2022/08/09 01:57:38;;;;;;;6.07;5.67;;;;;;;27.26;38.47;95198.84;6177265;28;104653;-54
2022/08/09 02:00:50;;;;;;;6.13;5.63;;;;;;;27.32;38.70;95188.66;6186807;28;104461;-55
2022/08/09 02:03:56;;;;;;;5.80;5.40;;;;;;;27.42;37.72;95183.63;6184696;28;103009;-55
2022/08/09 02:07:08;;;;;;;6.00;5.60;;;;;;;27.63;38.20;95207.69;6179051;28;104164;-54
2022/08/09 02:10:35;;;;;;;6.27;5.80;;;;;;;27.65;37.93;95201.97;6181727;28;104889;-55
2022/08/09 02:13:40;;;;;;;6.10;5.57;;;;;;;27.72;37.58;95203.00;6186609;28;103991;-55
2022/08/09 02:16:59;;;;;;;6.10;5.70;;;;;;;27.69;38.08;95200.16;6186749;28;103975;-55
2022/08/09 02:20:22;;;;;;;5.90;5.40;;;;;;;27.70;38.15;95205.22;6176136;28;105406;-55
2022/08/09 02:23:39;;;;;;;6.47;6.00;;;;;;;27.47;38.53;95204.13;6186876;28;102983;-55
2022/08/09 02:26:46;;;;;;;5.87;5.30;;;;;;;27.28;38.58;95211.94;6184769;28;104027;-55
2022/08/09 02:29:51;;;;;;;6.40;5.80;;;;;;;27.20;38.86;95204.72;6175786;28;104298;-54
2022/08/09 02:32:59;;;;;;;6.20;5.77;;;;;;;27.11;38.61;95215.59;6184001;28;103005;-55
2022/08/09 02:36:06;;;;;;;11.37;10.50;;;;;;;27.10;39.17;95216.72;6185518;28;103171;-55
2022/08/09 02:39:18;;;;;;;10.67;9.80;;;;;;;27.02;39.29;95215.69;6185675;28;104159;-54
2022/08/09 02:42:38;;;;;;;16.80;15.27;;;;;;;26.94;39.91;95216.56;6174165;28;103195;-55
2022/08/09 02:45:44;;;;;;;13.73;12.47;;;;;;;26.64;40.58;95226.66;6182164;28;104099;-54
2022/08/09 02:48:52;;;;;;;8.00;7.30;;;;;;;26.28;41.30;95222.69;6185610;28;104046;-55
2022/08/09 02:51:59;;;;;;;8.07;7.47;;;;;;;26.42;40.88;95222.41;6181259;28;103107;-56
2022/08/09 02:55:08;;;;;;;7.43;6.83;;;;;;;26.59;41.18;95226.84;6179984;28;103988;-55
2022/08/09 02:58:26;;;;;;;7.57;6.87;;;;;;;26.49;41.74;95232.59;6185741;28;103248;-55
2022/08/09 03:01:40;;;;;;;8.00;6.67;;;;;;;26.50;41.10;95234.97;6183578;28;104175;-54
2022/08/09 03:05:08;;;;;;;7.17;6.50;;;;;;;26.61;41.52;95226.50;6176244;28;103168;-54
2022/08/09 03:08:21;;;;;;;7.33;6.40;;;;;;;26.87;40.83;95233.22;6184762;28;103104;-55
2022/08/09 03:11:27;;;;;;;7.00;6.50;;;;;;;26.98;40.72;95224.75;6184081;28;104084;-55
2022/08/09 03:14:52;;;;;;;7.60;7.00;;;;;;;27.07;40.00;95222.75;6179380;28;104949;-54
2022/08/09 03:17:56;;;;;;;8.93;8.00;;;;;;;26.99;40.74;95213.66;6177469;28;104089;-54
2022/08/09 03:21:03;;;;;;;8.50;7.73;;;;;;;26.93;40.62;95224.97;6185603;28;103174;-56
2022/08/09 03:24:06;;;;;;;10.30;7.90;;;;;;;26.79;40.76;95231.41;6185832;28;103261;-54
2022/08/09 03:27:13;;;;;;;8.53;7.57;;;;;;;26.70;40.66;95221.88;6175425;28;104462;-55
2022/08/09 03:30:24;;;;;;;8.23;7.53;;;;;;;26.74;40.74;95230.84;6183530;28;103989;-56
2022/08/09 03:33:37;;;;;;;8.33;7.53;;;;;;;26.69;40.89;95226.44;6183476;28;105138;-56
2022/08/09 03:36:58;;;;;;;10.00;6.97;;;;;;;26.69;40.66;95236.41;6177931;28;103533;-55
2022/08/09 03:40:21;;;;;;;7.57;6.97;;;;;;;26.81;40.56;95237.22;6173170;28;103218;-51
2022/08/09 03:43:28;;;;;;;9.00;7.83;;;;;;;26.89;40.94;95240.19;6181253;28;103180;-51
2022/08/09 03:46:35;;;;;;;7.27;6.57;;;;;;;27.12;39.85;95242.13;6183805;28;102963;-51
2022/08/09 03:49:40;;;;;;;6.60;6.00;;;;;;;27.27;39.81;95229.19;6171467;28;103903;-51
2022/08/09 03:53:03;;;;;;;6.83;6.30;;;;;;;27.45;39.78;95236.72;6183717;28;103004;-51
2022/08/09 03:56:08;;;;;;;7.03;6.40;;;;;;;27.55;39.93;95240.84;6181727;28;104149;-50
2022/08/09 03:59:13;;;;;;;8.10;7.30;;;;;;;27.60;39.68;95245.22;6182796;28;103269;-51
2022/08/09 04:02:31;;;;;;;7.30;6.70;;;;;;;27.62;39.33;95243.00;6172814;28;104062;-51
2022/08/09 04:05:35;;;;;;;7.53;6.93;;;;;;;27.57;39.53;95244.00;6183479;28;103161;-51
2022/08/09 04:08:43;;;;;;;7.47;6.77;;;;;;;27.69;39.69;95254.72;6185491;28;103769;-53
2022/08/09 04:12:17;;;;;;;7.20;6.47;;;;;;;27.64;39.37;95244.22;6177874;28;103239;-52
2022/08/09 04:15:32;;;;;;;10.83;7.07;;;;;;;27.84;39.46;95247.91;6174770;28;104207;-51
2022/08/09 04:18:55;;;;;;;14.97;6.77;;;;;;;27.79;39.75;95242.75;6179994;28;104558;-52
2022/08/09 04:21:59;;;;;;;9.00;6.40;;;;;;;27.61;39.23;95241.41;6176334;28;103421;-52
2022/08/09 04:25:05;;;;;;;13.10;6.17;;;;;;;27.44;39.53;95245.91;6170662;28;103048;-52
2022/08/09 04:28:10;;;;;;;8.53;6.53;;;;;;;27.09;40.68;95253.53;6180699;28;104253;-51
2022/08/09 04:31:14;;;;;;;8.67;6.13;;;;;;;27.07;40.53;95250.41;6180634;28;103163;-51
2022/08/09 04:34:17;;;;;;;7.53;6.70;;;;;;;26.80;41.25;95227.59;6176889;28;104209;-51
2022/08/09 04:37:33;;;;;;;7.97;7.27;;;;;;;26.91;41.04;95257.53;6174502;28;104515;-51
2022/08/09 04:40:50;;;;;;;8.87;7.23;;;;;;;26.67;41.94;95266.25;6180166;28;102914;-52
2022/08/09 04:43:59;;;;;;;7.63;6.93;;;;;;;26.46;41.99;95265.47;6171740;28;103002;-50
2022/08/09 04:47:11;;;;;;;8.77;6.63;;;;;;;26.63;41.96;95264.56;6175666;28;104602;-50
2022/08/09 04:50:15;;;;;;;9.67;6.50;;;;;;;26.71;41.69;95272.53;6183054;28;104374;-50
2022/08/09 04:53:21;;;;;;;7.87;7.23;;;;;;;26.62;41.51;95265.66;6183385;28;103036;-50
2022/08/09 04:56:26;;;;;;;12.87;6.90;;;;;;;26.93;41.65;95271.41;6181917;28;103187;-50
2022/08/09 04:59:29;;;;;;;8.90;6.73;;;;;;;27.23;41.41;95271.25;6172661;28;103446;-50
2022/08/09 05:02:32;;;;;;;7.17;6.47;;;;;;;27.31;41.51;95273.09;6180010;28;103105;-50
2022/08/09 05:05:35;;;;;;;8.90;6.73;;;;;;;27.52;40.49;95271.09;6183126;28;104242;-49
2022/08/09 05:08:58;;;;;;;9.30;6.80;;;;;;;27.69;40.78;95278.16;6167795;28;102959;-50
2022/08/09 05:12:05;;;;;;;7.43;6.73;;;;;;;27.72;40.44;95280.16;6162098;28;103139;-50
2022/08/09 05:15:09;;;;;;;6.43;5.90;;;;;;;27.89;39.67;95271.94;6157291;28;103256;-50
2022/08/09 05:18:28;;;;;;;7.10;6.40;;;;;;;28.03;39.34;95279.63;6158208;28;104165;-50
2022/08/09 05:21:51;;;;;;;9.00;6.70;;;;;;;27.90;39.41;95270.81;6146749;28;105601;-50
2022/08/09 05:24:58;;;;;;;7.33;5.93;;;;;;;28.04;39.00;95281.19;6171921;28;103271;-50
2022/08/09 05:28:06;;;;;;;9.00;7.70;;;;;;;27.96;39.25;95263.28;6181313;28;103082;-49
2022/08/09 05:31:09;;;;;;;8.17;6.30;;;;;;;28.09;39.26;95280.97;6175270;28;103012;-52
2022/08/09 05:34:13;;;;;;;8.00;7.30;;;;;;;28.19;39.04;95295.88;6164125;28;102718;-50
2022/08/09 05:37:19;;;;;;;7.27;6.13;;;;;;;28.18;39.04;95291.59;6159359;28;103461;-51
2022/08/09 05:40:22;;;;;;;11.17;6.50;;;;;;;28.23;39.19;95294.88;6162011;28;103218;-51
2022/08/09 05:43:27;;;;;;;8.40;6.80;;;;;;;28.24;39.22;95285.66;6153264;28;104112;-51
2022/08/09 05:46:33;;;;;;;15.43;7.30;;;;;;;28.34;38.98;95287.09;6164424;28;104295;-50
2022/08/09 05:49:37;;;;;;;7.67;6.80;;;;;;;28.35;39.54;95286.75;6169949;28;103169;-50
2022/08/09 05:53:00;;;;;;;7.30;6.60;;;;;;;28.20;39.33;95281.28;6186102;28;104832;-50
2022/08/09 05:56:03;;;;;;;9.63;6.57;;;;;;;28.11;39.45;95283.34;6176022;28;104093;-50
2022/08/09 05:59:08;;;;;;;7.93;7.00;;;;;;;28.13;39.36;95281.09;6187216;28;103202;-50
2022/08/09 06:02:16;;;;;;;7.40;6.70;;;;;;;28.20;39.62;95286.66;6188499;28;103101;-50
2022/08/09 06:05:20;;;;;;;7.87;7.17;;;;;;;27.99;39.64;95282.22;6177912;28;106083;-49
2022/08/09 06:08:43;;;;;;;7.10;6.40;;;;;;;27.82;39.81;95290.50;6187967;28;105188;-50
2022/08/09 06:11:54;;;;;;;7.40;6.70;;;;;;;27.68;40.79;95287.34;6187521;28;103385;-50
2022/08/09 06:15:01;;;;;;;7.20;6.57;;;;;;;27.65;40.09;95278.03;6185845;28;104633;-50
2022/08/09 06:18:11;;;;;;;7.53;6.93;;;;;;;27.53;39.97;95274.56;6175756;28;104232;-50
2022/08/09 06:21:14;;;;;;;8.10;7.40;;;;;;;27.45;40.38;95277.03;6185720;28;102959;-50
2022/08/09 06:24:18;;;;;;;8.10;7.40;;;;;;;27.21;40.03;95244.69;6185605;28;104099;-50
2022/08/09 06:27:21;;;;;;;8.33;7.53;;;;;;;27.66;39.87;95284.22;6182117;28;105885;-49
2022/08/09 06:30:26;;;;;;;8.40;7.70;;;;;;;27.86;39.25;95288.72;6182243;28;103920;-50
2022/08/09 06:33:31;;;;;;;9.30;7.53;;;;;;;28.10;38.97;95287.16;6187827;28;103175;-51
2022/08/09 06:36:43;;;;;;;8.60;7.90;;;;;;;28.24;38.84;95282.19;6185219;28;102955;-51
2022/08/09 06:39:46;;;;;;;12.60;8.80;;;;;;;28.36;39.24;95280.25;6175666;28;102981;-50
2022/08/09 06:43:03;;;;;;;10.40;8.70;;;;;;;28.34;38.83;95268.25;6187382;28;103922;-51
2022/08/09 06:46:13;;;;;;;9.10;8.30;;;;;;;28.50;38.86;95282.59;6187845;28;102920;-52
2022/08/09 06:49:36;;;;;;;10.37;9.37;;;;;;;28.53;38.36;95273.84;6187458;28;104625;-51
2022/08/09 06:53:00;;;;;;;10.87;9.83;;;;;;;28.59;38.32;95275.19;6183185;28;103384;-51
2022/08/09 06:56:04;;;;;;;11.53;10.10;;;;;;;28.67;38.30;95273.44;6187467;28;103255;-49
2022/08/09 06:59:07;;;;;;;11.03;9.93;;;;;;;28.74;38.01;95270.19;6187253;28;104045;-50
2022/08/09 07:02:32;;;;;;;12.00;10.60;;;;;;;28.73;38.35;95277.50;6173657;28;104813;-50
2022/08/09 07:05:36;;;;;;;12.40;10.60;;;;;;;28.60;38.98;95273.25;6169279;28;104276;-50
2022/08/09 07:08:59;;;;;;;12.77;10.60;;;;;;;28.59;39.34;95272.47;6160656;28;105878;-51
2022/08/09 07:12:03;;;;;;;11.70;10.70;;;;;;;28.44;39.08;95273.16;6161788;28;102726;-51
2022/08/09 07:15:07;;;;;;;15.77;11.80;;;;;;;28.19;39.55;95264.34;6153522;28;103869;-49
2022/08/09 07:18:31;;;;;;;12.97;11.87;;;;;;;28.27;39.54;95259.97;6162326;28;102833;-51
2022/08/09 07:21:34;;;;;;;13.90;12.20;;;;;;;28.29;39.73;95263.13;6162046;28;103908;-50
2022/08/09 07:24:38;;;;;;;37.40;16.27;;;;;;;28.18;40.02;95267.38;6152279;28;102985;-51
2022/08/09 07:27:46;;;;;;;34.97;16.47;;;;;;;28.17;39.81;95263.13;6160754;28;103156;-50
2022/08/09 07:30:57;;;;;;;45.20;16.37;;;;;;;28.35;39.65;95265.22;6162034;28;103377;-50
2022/08/09 07:34:02;;;;;;;21.90;15.30;;;;;;;28.79;39.31;95262.63;6163967;28;103056;-51
2022/08/09 07:37:05;;;;;;;20.30;14.23;;;;;;;28.97;38.78;95270.41;6151014;28;104100;-50
2022/08/09 07:40:20;;;;;;;15.00;12.60;;;;;;;29.10;38.20;95269.25;6160148;28;103025;-49
2022/08/09 07:43:29;;;;;;;16.00;12.50;;;;;;;29.17;38.08;95270.22;6159917;28;103280;-51
2022/08/09 07:46:43;;;;;;;36.67;14.47;;;;;;;29.27;38.44;95270.84;6156931;28;103057;-50
2022/08/09 07:49:51;;;;;;;42.97;15.80;;;;;;;29.33;38.99;95269.44;6156393;28;103988;-50
2022/08/09 07:53:11;;;;;;;52.23;17.63;;;;;;;29.39;38.61;95266.13;6161993;28;103972;-50
2022/08/09 07:56:18;;;;;;;75.17;18.47;;;;;;;29.39;39.43;95268.81;6161523;28;103954;-49
2022/08/09 07:59:29;;;;;;;38.73;13.43;;;;;;;29.24;39.28;95269.63;6151220;28;104625;-49
2022/08/09 08:02:52;;;;;;;42.63;12.00;;;;;;;29.28;39.30;95261.63;6163471;28;102813;-51
2022/08/09 08:05:57;;;;;;;58.23;13.83;;;;;;;29.12;38.52;95267.00;6160632;28;104180;-50
2022/08/09 08:09:00;;;;;;;35.40;10.23;;;;;;;28.78;38.26;95257.59;6160408;28;104016;-50
2022/08/09 08:12:09;;;;;;;23.23;9.07;;;;;;;28.53;37.89;95259.59;6150422;28;103297;-50
2022/08/09 08:15:32;;;;;;;23.60;8.70;;;;;;;28.55;38.66;95257.31;6161977;28;105619;-50
2022/08/09 08:18:41;;;;;;;26.40;9.83;;;;;;;28.48;39.05;95255.22;6160928;28;103166;-50
2022/08/09 08:21:51;;;;;;;14.73;7.93;;;;;;;28.75;38.46;95248.28;6151780;28;103934;-50
2022/08/09 08:24:55;;;;;;;51.23;11.40;;;;;;;28.54;38.31;95239.59;6161449;28;103006;-50
2022/08/09 08:27:59;;;;;;;16.67;7.60;;;;;;;28.62;38.44;95241.38;6160686;28;103424;-49
2022/08/09 08:31:03;;;;;;;7.43;6.63;;;;;;;28.80;36.60;95241.88;6160891;28;103090;-51
2022/08/09 08:34:17;;;;;;;7.53;6.40;;;;;;;29.04;35.99;95249.03;6169700;28;103225;-50
2022/08/09 08:37:29;;;;;;;6.37;5.77;;;;;;;29.23;35.16;95241.88;6184798;28;104069;-51
2022/08/09 08:40:54;;;;;;;8.83;5.97;;;;;;;29.29;34.43;95247.78;6185205;28;102765;-50
2022/08/09 08:43:58;;;;;;;6.10;5.60;;;;;;;29.35;35.02;95237.53;6178166;28;103107;-50
2022/08/09 08:47:05;;;;;;;8.23;5.73;;;;;;;29.31;35.13;95226.66;6184178;28;103134;-51
2022/08/09 08:50:16;;;;;;;9.97;5.90;;;;;;;29.28;35.25;95226.56;6184851;28;102800;-50
2022/08/09 08:53:22;;;;;;;16.23;6.70;;;;;;;29.23;35.68;95228.41;6185451;28;104413;-50
2022/08/09 08:56:35;;;;;;;11.73;5.60;;;;;;;29.57;34.86;95228.84;6175060;28;104089;-50
2022/08/09 08:59:39;;;;;;;15.30;6.37;;;;;;;29.37;35.41;95217.16;6184800;28;103050;-49
2022/08/09 09:02:50;;;;;;;7.63;5.33;;;;;;;29.55;34.63;95218.38;6184625;28;103061;-50
2022/08/09 09:05:56;;;;;;;14.53;6.40;;;;;;;29.59;35.29;95210.38;6184218;28;105153;-50
2022/08/09 09:09:10;;;;;;;22.83;7.17;;;;;;;29.16;35.68;95209.34;6176807;28;103009;-50
2022/08/09 09:12:34;;;;;;;7.83;6.30;;;;;;;28.79;34.67;95207.97;6168657;28;103513;-50
2022/08/09 09:15:38;;;;;;;6.27;5.87;;;;;;;28.58;34.46;95198.22;6161898;28;104010;-51
2022/08/09 09:18:42;;;;;;;6.17;5.37;;;;;;;28.87;34.83;95207.03;6154140;28;103730;-50
2022/08/09 09:22:00;;;;;;;5.67;4.63;;;;;;;29.08;33.40;95196.84;6164571;28;104004;-51
2022/08/09 09:25:08;;;;;;;6.30;5.70;;;;;;;28.76;34.64;95187.13;6164129;28;102995;-50
2022/08/09 09:28:33;;;;;;;5.60;5.10;;;;;;;28.64;33.99;95191.44;6163977;28;104880;-50
2022/08/09 09:31:57;;;;;;;5.60;4.90;;;;;;;28.73;33.62;95179.72;6159302;28;104780;-50
2022/08/09 09:35:16;;;;;;;5.33;4.00;;;;;;;29.13;31.93;95180.41;6188592;28;103123;-50
2022/08/09 09:38:22;;;;;;;4.13;3.53;;;;;;;29.35;29.91;95187.06;6188581;28;103298;-50
2022/08/09 09:41:40;;;;;;;5.07;3.00;;;;;;;29.55;29.17;95171.75;6177822;28;103193;-50
2022/08/09 09:44:58;;;;;;;4.90;2.57;;;;;;;29.32;27.51;95181.59;6188769;28;104562;-49
2022/08/09 09:48:04;;;;;;;12.03;3.20;;;;;;;29.62;28.07;95174.63;6188157;28;103378;-49
2022/08/09 09:51:07;;;;;;;2.90;2.60;;;;;;;29.76;27.97;95168.78;6189123;28;103138;-48
2022/08/09 09:54:21;;;;;;;3.20;2.73;;;;;;;29.84;28.40;95167.78;6181761;28;104093;-48
2022/08/09 09:57:25;;;;;;;3.30;2.90;;;;;;;29.90;29.22;95168.28;6189050;28;103865;-48
2022/08/09 10:00:51;;;;;;;2.87;2.67;;;;;;;29.96;29.42;95170.38;6188509;28;105272;-48
2022/08/09 10:03:58;;;;;;;6.00;4.50;;;;;;;29.68;29.53;95161.66;6177486;28;104242;-60
2022/08/09 10:07:22;;;;;;;6.30;3.90;;;;;;;29.42;30.45;95162.22;6183030;28;104017;-56
2022/08/09 10:10:29;;;;;;;8.67;4.40;;;;;;;29.50;30.67;95166.63;6160649;28;104338;-55
2022/08/09 10:13:41;;;;;;;8.53;4.80;;;;;;;29.23;30.73;95160.19;6163066;28;103990;-54
2022/08/09 10:16:47;;;;;;;6.37;5.70;;;;;;;29.03;30.61;95156.63;6153382;28;104129;-55
2022/08/09 10:20:24;;;;;;;5.57;4.37;;;;;;;29.03;31.11;95172.78;6163456;28;104413;-52
2022/08/09 10:23:34;;;;;;;10.83;5.23;;;;;;;28.91;30.88;95162.91;6163193;28;104257;-50
2022/08/09 10:26:41;;;;;;;7.07;4.93;;;;;;;28.80;31.04;95147.59;6152629;28;103992;-53
2022/08/09 10:29:50;;;;;;;7.83;4.70;;;;;;;28.91;31.66;95148.63;6163444;28;103087;-48
2022/08/09 10:33:13;;;;;;;8.03;3.33;;;;;;;28.97;30.03;95158.03;6173410;28;102917;-50
2022/08/09 10:36:37;;;;;;;4.80;2.57;;;;;;;29.04;28.89;95147.44;6186940;28;105893;-49
2022/08/09 10:39:41;;;;;;;8.70;3.23;;;;;;;29.27;29.89;95154.91;6178228;28;103320;-47
2022/08/09 10:42:51;;;;;;;6.40;3.10;;;;;;;29.45;30.77;95151.50;6187936;28;103802;-48
2022/08/09 10:46:02;;;;;;;4.63;3.20;;;;;;;29.60;30.70;95154.53;6186790;28;103293;-48
2022/08/09 10:49:13;;;;;;;5.27;3.40;;;;;;;29.72;31.20;95157.91;6178487;28;105542;-49
2022/08/09 10:52:56;;;;;;;6.07;3.50;;;;;;;29.87;31.89;95155.50;6187347;28;103845;-48
2022/08/09 10:56:23;;;;;;;7.70;3.40;;;;;;;29.92;32.03;95155.25;6185279;28;104602;-58
2022/08/09 10:59:30;;;;;;;55.60;7.87;;;;;;;29.75;31.78;95162.63;6180143;28;104060;-54
2022/08/09 11:02:56;;;;;;;20.97;4.33;;;;;;;29.77;29.82;95162.25;6180792;28;105203;-50
2022/08/09 11:06:24;;;;;;;17.30;4.43;;;;;;;29.83;30.91;95153.53;6185692;28;105162;-50
2022/08/09 11:09:49;;;;;;;15.80;4.53;;;;;;;29.88;33.15;95157.84;6180130;28;103266;-59
2022/08/09 11:13:13;;;;;;;11.03;3.97;;;;;;;29.91;33.04;95157.16;6165891;28;103575;-51
2022/08/09 11:16:38;;;;;;;14.27;4.00;;;;;;;29.82;33.18;95148.47;6166783;28;102983;-49
2022/08/09 11:19:54;;;;;;;23.03;4.43;;;;;;;29.68;33.84;95153.56;6162828;28;103133;-49
2022/08/09 11:23:17;;;;;;;19.37;5.57;;;;;;;29.48;34.57;95155.41;6150494;28;102813;-50
2022/08/09 11:26:39;;;;;;;52.47;7.73;;;;;;;28.79;36.68;95117.16;6163136;28;104169;-50
2022/08/09 11:29:56;;;;;;;44.23;6.70;;;;;;;29.04;35.50;95142.03;6183768;28;103926;-56
2022/08/09 11:33:37;;;;;;;27.93;6.40;;;;;;;29.07;34.37;95141.38;6183951;28;102723;-56
2022/08/09 11:36:43;;;;;;;14.60;5.33;;;;;;;29.09;31.64;95143.72;6179759;28;103598;-55
2022/08/09 11:40:02;;;;;;;11.73;4.50;;;;;;;29.05;31.65;95134.75;6186146;28;103979;-56
2022/08/09 11:43:06;;;;;;;18.47;5.60;;;;;;;29.23;31.70;95138.63;6186398;28;103035;-56
2022/08/09 11:46:11;;;;;;;34.70;6.93;;;;;;;29.36;32.23;95123.16;6175996;28;105083;-56
2022/08/09 11:50:02;;;;;;;32.60;7.70;;;;;;;29.45;32.18;95140.72;6184961;28;104285;-55
2022/08/09 11:53:28;;;;;;;9.93;4.50;;;;;;;29.60;30.10;95122.94;6138920;28;105495;-55
2022/08/09 11:56:51;;;;;;;11.63;4.90;;;;;;;29.58;30.03;95132.53;6177607;28;105094;-56
2022/08/09 11:59:54;;;;;;;12.70;5.10;;;;;;;29.58;30.86;95119.81;6184815;28;105128;-56
2022/08/09 12:02:59;;;;;;;14.10;5.33;;;;;;;29.59;30.71;95132.16;6182041;28;103703;-56
2022/08/09 12:06:25;;;;;;;10.73;4.77;;;;;;;29.64;31.33;95126.50;6184409;28;105877;-55
2022/08/09 12:09:39;;;;;;;6.77;3.93;;;;;;;29.64;30.93;95125.75;6174240;28;103032;-56
2022/08/09 12:12:52;;;;;;;4.63;3.00;;;;;;;29.63;29.27;95118.78;6184657;28;103042;-55
2022/08/09 12:16:00;;;;;;;6.13;5.47;;;;;;;29.63;28.47;95114.16;6182504;28;104749;-56
2022/08/09 12:19:07;;;;;;;5.33;4.00;;;;;;;29.52;29.13;95113.13;6180128;28;105589;-54
2022/08/09 12:22:11;;;;;;;7.27;4.50;;;;;;;29.35;29.90;95106.19;6180225;28;104134;-55
2022/08/09 12:25:20;;;;;;;5.10;3.87;;;;;;;29.25;30.36;95109.44;6186734;28;104093;-55
2022/08/09 12:28:47;;;;;;;6.27;4.43;;;;;;;29.06;30.38;95102.06;6184290;28;104063;-56
2022/08/09 12:32:10;;;;;;;6.97;4.70;;;;;;;28.94;30.52;95089.44;6175545;28;105299;-55
2022/08/09 12:35:14;;;;;;;5.80;4.07;;;;;;;28.99;29.14;95085.69;6186307;28;104104;-55
2022/08/09 12:38:28;;;;;;;4.53;3.50;;;;;;;28.95;28.86;95084.84;6223715;22;103635;-73
2022/08/09 12:41:41;;;;;;;4.93;3.83;;;;;;;28.93;28.84;95084.41;6226768;27;105482;-72
2022/08/09 12:44:45;;;;;;;8.83;4.23;;;;;;;29.15;28.85;95085.72;6221565;28;103048;-71
2022/08/09 12:47:56;;;;;;;4.10;3.80;;;;;;;29.24;28.96;95081.72;6235101;28;103105;-74
2022/08/09 12:51:01;;;;;;;4.40;3.80;;;;;;;29.34;28.42;95071.50;6234765;28;103346;-71
2022/08/09 12:54:07;;;;;;;5.03;3.73;;;;;;;29.33;28.80;95059.16;6218568;28;103172;-72
2022/08/09 12:57:12;;;;;;;8.33;4.10;;;;;;;29.41;29.73;95066.28;6234497;28;102839;-74
2022/08/09 13:00:18;;;;;;;7.53;4.50;;;;;;;29.49;30.55;95070.66;6233010;28;103005;-76
2022/08/09 13:03:28;;;;;;;14.70;4.67;;;;;;;29.52;31.12;95059.19;6224145;28;104272;-76
2022/08/09 13:06:52;;;;;;;11.30;4.27;;;;;;;29.56;30.50;95046.53;6224777;27;102699;-73
2022/08/09 13:10:01;;;;;;;6.00;3.90;;;;;;;29.68;29.88;95051.06;6235181;28;103445;-75
2022/08/09 13:13:06;;;;;;;5.47;3.80;;;;;;;29.59;28.18;95024.28;6234602;28;103017;-73
2022/08/09 13:16:15;;;;;;;8.67;4.60;;;;;;;29.65;29.30;95052.56;6230221;28;103079;-75
2022/08/09 13:19:31;;;;;;;8.60;4.13;;;;;;;29.49;29.78;95057.97;6234315;28;103049;-73
2022/08/09 13:22:54;;;;;;;18.67;5.90;;;;;;;29.26;30.54;95056.31;6235556;28;102992;-72
2022/08/09 13:26:31;;;;;;;6.13;4.17;;;;;;;29.18;29.21;95068.84;6234306;28;103125;-76
2022/08/09 13:29:52;;;;;;;9.30;5.03;;;;;;;29.04;31.19;95060.38;6225542;28;104243;-76
2022/08/09 13:33:22;;;;;;;8.43;4.70;;;;;;;29.03;30.61;95062.31;6234342;28;103678;-75
2022/08/09 13:36:27;;;;;;;9.50;4.93;;;;;;;28.99;28.69;95063.34;6235955;28;102806;-73
2022/08/09 13:39:45;;;;;;;7.47;4.27;;;;;;;28.88;29.51;95049.63;6225929;28;103196;-76
2022/08/09 13:43:08;;;;;;;6.23;4.17;;;;;;;29.00;29.52;95062.22;6235536;28;103236;-75
2022/08/09 13:46:19;;;;;;;13.90;5.27;;;;;;;29.19;29.21;95056.91;6233423;28;104371;-75
2022/08/09 13:49:42;;;;;;;10.80;5.73;;;;;;;29.31;29.80;95056.81;6232046;28;102868;-75
2022/08/09 13:53:03;;;;;;;9.37;5.60;;;;;;;29.40;29.50;95062.78;6231280;28;103611;-75
2022/08/09 13:56:09;;;;;;;10.77;6.90;;;;;;;29.45;29.57;95059.03;6235639;28;103246;-74
2022/08/09 13:59:14;;;;;;;11.83;5.30;;;;;;;29.46;29.81;95061.38;6235103;27;104933;-74
2022/08/09 14:02:22;;;;;;;9.97;5.40;;;;;;;29.58;29.91;95057.00;6230043;28;103168;-76
2022/08/09 14:05:28;;;;;;;43.60;7.00;;;;;;;29.61;29.41;95051.69;6240545;28;102825;-73
2022/08/09 14:08:51;;;;;;;37.70;7.00;;;;;;;29.57;30.08;95039.22;6239467;28;102898;-75
2022/08/09 14:11:56;;;;;;;14.57;5.90;;;;;;;29.63;30.03;95046.72;6239587;28;105899;-75
2022/08/09 14:14:59;;;;;;;21.70;5.40;;;;;;;29.50;29.32;95034.47;6228308;27;104211;-73
2022/08/09 14:18:05;;;;;;;7.57;4.90;;;;;;;29.49;29.34;95043.72;6238824;28;103002;-73
2022/08/09 14:21:28;;;;;;;5.70;4.30;;;;;;;29.32;28.58;95041.41;6238703;28;102706;-70
2022/08/09 14:24:36;;;;;;;8.70;5.50;;;;;;;29.28;29.31;95046.72;6231741;28;104003;-72
2022/08/09 14:27:55;;;;;;;5.10;4.50;;;;;;;29.21;28.82;95041.94;6236967;28;103083;-72
2022/08/09 14:31:00;;;;;;;5.30;4.87;;;;;;;29.16;30.01;95033.38;6237986;28;102994;-70
2022/08/09 14:34:05;;;;;;;11.63;10.53;;;;;;;29.06;29.64;95037.38;6239002;28;103805;-72
2022/08/09 14:37:10;;;;;;;9.13;8.33;;;;;;;29.02;28.80;95036.50;6228606;28;103040;-73
2022/08/09 14:40:13;;;;;;;7.60;6.47;;;;;;;29.01;29.19;95028.75;6239290;28;103494;-73
2022/08/09 16:04:42;;;;;;;10.17;6.40;;;;;;;28.55;30.53;95023.84;6310909;22;102851;-54
2022/08/09 16:07:46;;;;;;;5.50;4.93;;;;;;;28.76;29.40;95020.13;6247317;27;104969;-54
2022/08/09 16:49:45;;;;;;;14.50;4.80;;;;;;;28.61;31.95;95044.00;6245826;22;102789;-53